Stonewall, Oklahoma
Current Conditions -  °F | °C
As of 7:35 PM on Saturday 25 Oct 2014 (Local Time) from KADH Reporting Station
Clear Clear  
Wind Chill: 77°   Ceiling: Unl
Heat Index: 79°   Visibility: 10mi
Dew Point: 61°   Wind: 6mph
Humidity: 57%   Direction: 200°SSW
Pressure: 30.03"   Gusts: NA
Location:  34.65°N, 96.53°W
Report Text: KADH 260035Z AUTO 20005KT 10SM CLR 25/16 A3003 RMK AO2
Loading
Personal Weather Stations






























Interactive Weather Map
Tropical Storm Tracking
New forecast layout! Learn more

10-Day Weather Forecast

Advertisements
Track Severe Weather on mobile